sensor_id;sensor_type;location;lat;lon;timestamp;temperature;humidity
8684;DHT22;4379;59.744;18.206;2023-06-22T00:01:22;17.80;99.90
8684;DHT22;4379;59.744;18.206;2023-06-22T00:03:50;17.90;99.90
8684;DHT22;4379;59.744;18.206;2023-06-22T00:06:18;17.90;99.90
8684;DHT22;4379;59.744;18.206;2023-06-22T00:08:45;17.90;99.90
8684;DHT22;4379;59.744;18.206;2023-06-22T00:11:13;17.90;99.90
8684;DHT22;4379;59.744;18.206;2023-06-22T00:13:40;17.90;99.90
8684;DHT22;4379;59.744;18.206;2023-06-22T00:16:08;17.90;99.90
8684;DHT22;4379;59.744;18.206;2023-06-22T00:18:35;18.00;99.90
8684;DHT22;4379;59.744;18.206;2023-06-22T00:21:03;18.10;99.90
8684;DHT22;4379;59.744;18.206;2023-06-22T00:23:31;18.10;99.90
8684;DHT22;4379;59.744;18.206;2023-06-22T00:26:02;18.20;99.90
8684;DHT22;4379;59.744;18.206;2023-06-22T00:28:30;18.20;99.90
8684;DHT22;4379;59.744;18.206;2023-06-22T00:30:57;18.10;99.90
8684;DHT22;4379;59.744;18.206;2023-06-22T00:33:25;18.10;99.90
8684;DHT22;4379;59.744;18.206;2023-06-22T00:35:52;18.10;99.90
8684;DHT22;4379;59.744;18.206;2023-06-22T00:38:20;18.00;99.90
8684;DHT22;4379;59.744;18.206;2023-06-22T00:40:48;17.90;99.90
8684;DHT22;4379;59.744;18.206;2023-06-22T00:43:16;18.00;99.90
8684;DHT22;4379;59.744;18.206;2023-06-22T00:45:43;18.00;99.90
8684;DHT22;4379;59.744;18.206;2023-06-22T00:48:12;18.00;99.90
8684;DHT22;4379;59.744;18.206;2023-06-22T00:50:41;18.00;99.90
8684;DHT22;4379;59.744;18.206;2023-06-22T00:53:09;18.00;99.90
8684;DHT22;4379;59.744;18.206;2023-06-22T00:55:40;18.00;99.90
8684;DHT22;4379;59.744;18.206;2023-06-22T00:58:11;17.90;99.90
8684;DHT22;4379;59.744;18.206;2023-06-22T01:00:40;17.90;99.90
8684;DHT22;4379;59.744;18.206;2023-06-22T01:03:08;17.80;99.90
8684;DHT22;4379;59.744;18.206;2023-06-22T01:05:38;17.80;99.90
8684;DHT22;4379;59.744;18.206;2023-06-22T01:08:42;17.80;99.90
8684;DHT22;4379;59.744;18.206;2023-06-22T01:11:21;17.70;99.90
8684;DHT22;4379;59.744;18.206;2023-06-22T01:14:00;17.70;99.90
8684;DHT22;4379;59.744;18.206;2023-06-22T01:16:34;17.70;99.90
8684;DHT22;4379;59.744;18.206;2023-06-22T01:19:28;17.60;99.90
8684;DHT22;4379;59.744;18.206;2023-06-22T01:21:58;17.70;99.90
8684;DHT22;4379;59.744;18.206;2023-06-22T01:24:40;17.70;99.90
8684;DHT22;4379;59.744;18.206;2023-06-22T01:30:09;17.70;99.90
8684;DHT22;4379;59.744;18.206;2023-06-22T01:32:38;17.60;99.90
8684;DHT22;4379;59.744;18.206;2023-06-22T01:35:08;17.70;99.90
8684;DHT22;4379;59.744;18.206;2023-06-22T01:37:37;17.60;99.90
8684;DHT22;4379;59.744;18.206;2023-06-22T01:40:06;17.70;99.90
8684;DHT22;4379;59.744;18.206;2023-06-22T01:42:36;17.70;99.90
8684;DHT22;4379;59.744;18.206;2023-06-22T01:45:05;17.80;99.90
8684;DHT22;4379;59.744;18.206;2023-06-22T01:47:34;17.80;99.90
8684;DHT22;4379;59.744;18.206;2023-06-22T01:50:01;17.90;99.90
8684;DHT22;4379;59.744;18.206;2023-06-22T01:52:29;17.80;99.90
8684;DHT22;4379;59.744;18.206;2023-06-22T01:54:57;17.90;99.90
8684;DHT22;4379;59.744;18.206;2023-06-22T01:57:25;17.90;99.90
8684;DHT22;4379;59.744;18.206;2023-06-22T02:00:15;17.90;99.90
8684;DHT22;4379;59.744;18.206;2023-06-22T02:02:56;17.90;99.90
8684;DHT22;4379;59.744;18.206;2023-06-22T02:05:28;18.00;99.90
8684;DHT22;4379;59.744;18.206;2023-06-22T02:08:15;18.00;99.90
8684;DHT22;4379;59.744;18.206;2023-06-22T02:10:46;18.00;99.90
8684;DHT22;4379;59.744;18.206;2023-06-22T02:13:16;18.10;99.90
8684;DHT22;4379;59.744;18.206;2023-06-22T02:15:43;18.10;99.90
8684;DHT22;4379;59.744;18.206;2023-06-22T02:18:12;18.00;99.90
8684;DHT22;4379;59.744;18.206;2023-06-22T02:20:40;18.10;99.90
8684;DHT22;4379;59.744;18.206;2023-06-22T02:23:07;18.10;99.90
8684;DHT22;4379;59.744;18.206;2023-06-22T02:25:35;18.00;99.90
8684;DHT22;4379;59.744;18.206;2023-06-22T02:28:04;18.10;99.90
8684;DHT22;4379;59.744;18.206;2023-06-22T02:30:32;18.00;99.90
8684;DHT22;4379;59.744;18.206;2023-06-22T02:32:59;18.00;99.90
8684;DHT22;4379;59.744;18.206;2023-06-22T02:35:28;18.20;99.90
8684;DHT22;4379;59.744;18.206;2023-06-22T02:37:59;18.20;99.90
8684;DHT22;4379;59.744;18.206;2023-06-22T02:40:28;18.30;99.90
8684;DHT22;4379;59.744;18.206;2023-06-22T02:42:58;18.30;99.90
8684;DHT22;4379;59.744;18.206;2023-06-22T02:45:29;18.30;99.90
8684;DHT22;4379;59.744;18.206;2023-06-22T02:47:57;18.30;99.90
8684;DHT22;4379;59.744;18.206;2023-06-22T02:50:25;18.30;99.90
8684;DHT22;4379;59.744;18.206;2023-06-22T02:52:52;18.40;99.90
8684;DHT22;4379;59.744;18.206;2023-06-22T02:55:20;18.50;99.90
8684;DHT22;4379;59.744;18.206;2023-06-22T02:57:47;18.60;99.90
8684;DHT22;4379;59.744;18.206;2023-06-22T03:00:15;18.70;99.90
8684;DHT22;4379;59.744;18.206;2023-06-22T03:02:46;18.70;99.90
8684;DHT22;4379;59.744;18.206;2023-06-22T03:05:14;18.80;99.90
8684;DHT22;4379;59.744;18.206;2023-06-22T03:07:42;18.80;99.90
8684;DHT22;4379;59.744;18.206;2023-06-22T03:10:11;18.80;99.90
8684;DHT22;4379;59.744;18.206;2023-06-22T03:12:40;18.70;99.90
8684;DHT22;4379;59.744;18.206;2023-06-22T03:15:10;18.60;99.90
8684;DHT22;4379;59.744;18.206;2023-06-22T03:17:39;18.70;99.90
8684;DHT22;4379;59.744;18.206;2023-06-22T03:20:08;18.70;99.90
8684;DHT22;4379;59.744;18.206;2023-06-22T03:22:38;18.60;99.90
8684;DHT22;4379;59.744;18.206;2023-06-22T03:25:06;18.70;99.90
8684;DHT22;4379;59.744;18.206;2023-06-22T03:27:38;18.60;99.90
8684;DHT22;4379;59.744;18.206;2023-06-22T03:30:08;18.70;99.90
8684;DHT22;4379;59.744;18.206;2023-06-22T03:32:35;18.80;99.90
8684;DHT22;4379;59.744;18.206;2023-06-22T03:35:03;18.80;99.90
8684;DHT22;4379;59.744;18.206;2023-06-22T03:37:30;18.70;99.90
8684;DHT22;4379;59.744;18.206;2023-06-22T03:39:58;18.70;99.90
8684;DHT22;4379;59.744;18.206;2023-06-22T03:42:38;18.70;99.90
8684;DHT22;4379;59.744;18.206;2023-06-22T03:45:06;18.80;99.90
8684;DHT22;4379;59.744;18.206;2023-06-22T03:47:33;18.90;99.90
8684;DHT22;4379;59.744;18.206;2023-06-22T03:50:01;18.80;99.90
8684;DHT22;4379;59.744;18.206;2023-06-22T03:52:31;18.90;99.90
8684;DHT22;4379;59.744;18.206;2023-06-22T03:54:59;19.00;99.90
8684;DHT22;4379;59.744;18.206;2023-06-22T03:57:26;19.00;99.90
8684;DHT22;4379;59.744;18.206;2023-06-22T03:59:57;19.00;99.90
8684;DHT22;4379;59.744;18.206;2023-06-22T04:02:25;19.00;99.90
8684;DHT22;4379;59.744;18.206;2023-06-22T04:04:52;19.00;99.90
8684;DHT22;4379;59.744;18.206;2023-06-22T04:07:20;19.10;99.90
8684;DHT22;4379;59.744;18.206;2023-06-22T04:09:47;19.10;99.90
8684;DHT22;4379;59.744;18.206;2023-06-22T04:12:15;19.00;99.90
8684;DHT22;4379;59.744;18.206;2023-06-22T04:14:42;19.00;99.90
8684;DHT22;4379;59.744;18.206;2023-06-22T04:17:10;19.00;99.90
8684;DHT22;4379;59.744;18.206;2023-06-22T04:19:37;19.20;99.90
8684;DHT22;4379;59.744;18.206;2023-06-22T04:22:05;19.60;99.90
8684;DHT22;4379;59.744;18.206;2023-06-22T04:24:34;19.60;99.90
8684;DHT22;4379;59.744;18.206;2023-06-22T04:27:01;19.90;99.90
8684;DHT22;4379;59.744;18.206;2023-06-22T04:29:30;19.90;99.90
8684;DHT22;4379;59.744;18.206;2023-06-22T04:31:57;19.80;99.90
8684;DHT22;4379;59.744;18.206;2023-06-22T04:34:25;19.90;99.90
8684;DHT22;4379;59.744;18.206;2023-06-22T04:36:55;19.90;99.90
8684;DHT22;4379;59.744;18.206;2023-06-22T04:39:23;19.70;99.90
8684;DHT22;4379;59.744;18.206;2023-06-22T04:41:51;19.60;99.90
8684;DHT22;4379;59.744;18.206;2023-06-22T04:44:18;19.80;99.90
8684;DHT22;4379;59.744;18.206;2023-06-22T04:46:54;20.00;99.90
8684;DHT22;4379;59.744;18.206;2023-06-22T04:49:27;20.60;99.90
8684;DHT22;4379;59.744;18.206;2023-06-22T04:52:09;21.40;99.90
8684;DHT22;4379;59.744;18.206;2023-06-22T04:54:38;22.50;99.90
8684;DHT22;4379;59.744;18.206;2023-06-22T04:57:07;23.90;99.90
8684;DHT22;4379;59.744;18.206;2023-06-22T04:59:38;25.60;99.90
8684;DHT22;4379;59.744;18.206;2023-06-22T05:02:09;26.30;99.90
8684;DHT22;4379;59.744;18.206;2023-06-22T05:04:36;25.60;99.90
8684;DHT22;4379;59.744;18.206;2023-06-22T05:07:06;26.00;99.90
8684;DHT22;4379;59.744;18.206;2023-06-22T05:09:34;26.20;99.90
8684;DHT22;4379;59.744;18.206;2023-06-22T05:12:02;25.90;99.90
8684;DHT22;4379;59.744;18.206;2023-06-22T05:14:30;25.10;99.90
8684;DHT22;4379;59.744;18.206;2023-06-22T05:17:01;25.10;99.90
8684;DHT22;4379;59.744;18.206;2023-06-22T05:19:31;25.70;99.90
8684;DHT22;4379;59.744;18.206;2023-06-22T05:22:01;25.60;99.90
8684;DHT22;4379;59.744;18.206;2023-06-22T05:24:28;25.40;99.90
8684;DHT22;4379;59.744;18.206;2023-06-22T05:26:56;25.10;99.90
8684;DHT22;4379;59.744;18.206;2023-06-22T05:29:23;25.00;99.90
8684;DHT22;4379;59.744;18.206;2023-06-22T05:31:51;25.10;99.90
8684;DHT22;4379;59.744;18.206;2023-06-22T05:34:18;26.00;99.90
8684;DHT22;4379;59.744;18.206;2023-06-22T05:36:45;26.00;99.90
8684;DHT22;4379;59.744;18.206;2023-06-22T05:39:14;25.40;99.90
8684;DHT22;4379;59.744;18.206;2023-06-22T05:41:42;25.70;99.90
8684;DHT22;4379;59.744;18.206;2023-06-22T05:44:12;26.40;99.90
8684;DHT22;4379;59.744;18.206;2023-06-22T05:46:44;26.20;99.90
8684;DHT22;4379;59.744;18.206;2023-06-22T05:49:14;26.30;99.90
8684;DHT22;4379;59.744;18.206;2023-06-22T05:51:42;26.90;99.90
8684;DHT22;4379;59.744;18.206;2023-06-22T05:54:09;26.10;99.90
8684;DHT22;4379;59.744;18.206;2023-06-22T05:56:38;26.00;99.90
8684;DHT22;4379;59.744;18.206;2023-06-22T05:59:05;26.00;99.90
8684;DHT22;4379;59.744;18.206;2023-06-22T06:01:32;25.60;99.90
8684;DHT22;4379;59.744;18.206;2023-06-22T06:04:03;25.30;99.90
8684;DHT22;4379;59.744;18.206;2023-06-22T06:06:33;25.00;99.90
8684;DHT22;4379;59.744;18.206;2023-06-22T06:09:04;24.60;99.90
8684;DHT22;4379;59.744;18.206;2023-06-22T06:11:32;23.90;99.90
8684;DHT22;4379;59.744;18.206;2023-06-22T06:13:59;23.80;99.90
8684;DHT22;4379;59.744;18.206;2023-06-22T06:16:27;23.70;99.90
8684;DHT22;4379;59.744;18.206;2023-06-22T06:18:58;23.10;99.90
8684;DHT22;4379;59.744;18.206;2023-06-22T06:21:26;22.60;99.90
8684;DHT22;4379;59.744;18.206;2023-06-22T06:23:56;22.60;99.90
8684;DHT22;4379;59.744;18.206;2023-06-22T06:26:24;22.40;99.90
8684;DHT22;4379;59.744;18.206;2023-06-22T06:28:57;22.10;99.90
8684;DHT22;4379;59.744;18.206;2023-06-22T06:31:25;21.80;99.90
8684;DHT22;4379;59.744;18.206;2023-06-22T06:33:56;21.60;99.90
8684;DHT22;4379;59.744;18.206;2023-06-22T06:36:24;21.50;99.90
8684;DHT22;4379;59.744;18.206;2023-06-22T06:38:51;22.20;99.90
8684;DHT22;4379;59.744;18.206;2023-06-22T06:41:19;22.50;99.90
8684;DHT22;4379;59.744;18.206;2023-06-22T06:43:47;22.60;99.90
8684;DHT22;4379;59.744;18.206;2023-06-22T06:46:14;22.20;99.90
8684;DHT22;4379;59.744;18.206;2023-06-22T06:48:42;22.00;99.90
8684;DHT22;4379;59.744;18.206;2023-06-22T06:51:09;21.90;99.90
8684;DHT22;4379;59.744;18.206;2023-06-22T06:53:38;21.90;99.90
8684;DHT22;4379;59.744;18.206;2023-06-22T06:56:05;21.50;99.90
8684;DHT22;4379;59.744;18.206;2023-06-22T06:58:33;21.30;99.90
8684;DHT22;4379;59.744;18.206;2023-06-22T07:01:00;21.10;99.90
8684;DHT22;4379;59.744;18.206;2023-06-22T07:03:27;21.10;99.90
8684;DHT22;4379;59.744;18.206;2023-06-22T07:05:58;21.20;99.90
8684;DHT22;4379;59.744;18.206;2023-06-22T07:08:26;21.10;99.90
8684;DHT22;4379;59.744;18.206;2023-06-22T07:10:53;20.90;99.90
8684;DHT22;4379;59.744;18.206;2023-06-22T07:13:21;20.80;99.90
8684;DHT22;4379;59.744;18.206;2023-06-22T07:15:48;20.70;99.90
8684;DHT22;4379;59.744;18.206;2023-06-22T07:18:16;20.80;99.90
8684;DHT22;4379;59.744;18.206;2023-06-22T07:20:43;20.70;99.90
8684;DHT22;4379;59.744;18.206;2023-06-22T07:23:10;20.70;99.90
8684;DHT22;4379;59.744;18.206;2023-06-22T07:25:37;20.80;99.90
8684;DHT22;4379;59.744;18.206;2023-06-22T07:28:07;20.90;99.90
8684;DHT22;4379;59.744;18.206;2023-06-22T07:30:34;20.90;99.90
8684;DHT22;4379;59.744;18.206;2023-06-22T07:33:02;20.80;99.90
8684;DHT22;4379;59.744;18.206;2023-06-22T07:35:31;20.70;99.90
8684;DHT22;4379;59.744;18.206;2023-06-22T07:37:59;20.50;99.90
8684;DHT22;4379;59.744;18.206;2023-06-22T07:40:31;20.30;99.90
8684;DHT22;4379;59.744;18.206;2023-06-22T07:43:00;20.20;99.90
8684;DHT22;4379;59.744;18.206;2023-06-22T07:45:27;20.00;99.90
8684;DHT22;4379;59.744;18.206;2023-06-22T07:47:54;20.20;99.90
8684;DHT22;4379;59.744;18.206;2023-06-22T07:50:22;20.50;99.90
8684;DHT22;4379;59.744;18.206;2023-06-22T07:52:51;20.40;99.90
8684;DHT22;4379;59.744;18.206;2023-06-22T07:55:19;20.60;99.90
8684;DHT22;4379;59.744;18.206;2023-06-22T07:57:48;20.70;99.90
8684;DHT22;4379;59.744;18.206;2023-06-22T08:00:16;21.10;99.90
8684;DHT22;4379;59.744;18.206;2023-06-22T08:02:45;21.50;99.90
8684;DHT22;4379;59.744;18.206;2023-06-22T08:05:14;21.80;99.90
8684;DHT22;4379;59.744;18.206;2023-06-22T08:07:45;22.10;99.90
8684;DHT22;4379;59.744;18.206;2023-06-22T08:10:15;22.50;99.90
8684;DHT22;4379;59.744;18.206;2023-06-22T08:12:43;22.60;99.90
8684;DHT22;4379;59.744;18.206;2023-06-22T08:15:10;22.50;99.90
8684;DHT22;4379;59.744;18.206;2023-06-22T08:17:38;22.50;99.90
8684;DHT22;4379;59.744;18.206;2023-06-22T08:20:07;22.50;99.90
8684;DHT22;4379;59.744;18.206;2023-06-22T08:22:42;22.40;99.90
8684;DHT22;4379;59.744;18.206;2023-06-22T08:25:11;21.80;99.90
8684;DHT22;4379;59.744;18.206;2023-06-22T08:27:38;21.50;99.90
8684;DHT22;4379;59.744;18.206;2023-06-22T08:30:12;21.50;99.90
8684;DHT22;4379;59.744;18.206;2023-06-22T08:32:39;21.60;99.90
8684;DHT22;4379;59.744;18.206;2023-06-22T08:35:07;21.70;99.90
8684;DHT22;4379;59.744;18.206;2023-06-22T08:37:37;22.40;99.90
8684;DHT22;4379;59.744;18.206;2023-06-22T08:40:08;22.70;99.90
8684;DHT22;4379;59.744;18.206;2023-06-22T08:42:37;23.10;99.90
8684;DHT22;4379;59.744;18.206;2023-06-22T08:45:05;22.70;99.90
8684;DHT22;4379;59.744;18.206;2023-06-22T08:47:33;22.70;99.90
8684;DHT22;4379;59.744;18.206;2023-06-22T08:50:01;22.70;99.90
8684;DHT22;4379;59.744;18.206;2023-06-22T08:52:32;22.50;99.90
8684;DHT22;4379;59.744;18.206;2023-06-22T08:54:59;22.10;99.90
8684;DHT22;4379;59.744;18.206;2023-06-22T08:57:30;22.20;99.90
8684;DHT22;4379;59.744;18.206;2023-06-22T09:00:00;22.20;99.90
8684;DHT22;4379;59.744;18.206;2023-06-22T09:02:27;22.50;99.90
8684;DHT22;4379;59.744;18.206;2023-06-22T09:04:58;22.90;99.90
8684;DHT22;4379;59.744;18.206;2023-06-22T09:07:27;23.20;99.90
8684;DHT22;4379;59.744;18.206;2023-06-22T09:09:55;23.70;99.90
8684;DHT22;4379;59.744;18.206;2023-06-22T09:12:22;23.80;99.90
8684;DHT22;4379;59.744;18.206;2023-06-22T09:14:53;24.40;99.90
8684;DHT22;4379;59.744;18.206;2023-06-22T09:17:20;24.80;99.90
8684;DHT22;4379;59.744;18.206;2023-06-22T09:19:48;24.80;99.90
8684;DHT22;4379;59.744;18.206;2023-06-22T09:22:17;25.20;99.90
8684;DHT22;4379;59.744;18.206;2023-06-22T09:24:44;24.90;99.90
8684;DHT22;4379;59.744;18.206;2023-06-22T09:27:12;25.00;99.90
8684;DHT22;4379;59.744;18.206;2023-06-22T09:29:40;25.40;99.90
8684;DHT22;4379;59.744;18.206;2023-06-22T09:32:07;25.00;99.90
8684;DHT22;4379;59.744;18.206;2023-06-22T09:34:35;25.30;99.90
8684;DHT22;4379;59.744;18.206;2023-06-22T09:37:03;25.40;99.90
8684;DHT22;4379;59.744;18.206;2023-06-22T09:39:31;25.10;99.90
8684;DHT22;4379;59.744;18.206;2023-06-22T09:41:59;24.70;99.90
8684;DHT22;4379;59.744;18.206;2023-06-22T09:44:29;24.50;99.90
8684;DHT22;4379;59.744;18.206;2023-06-22T09:47:02;24.90;99.90
8684;DHT22;4379;59.744;18.206;2023-06-22T09:49:34;25.20;99.90
8684;DHT22;4379;59.744;18.206;2023-06-22T09:52:15;26.00;99.90
8684;DHT22;4379;59.744;18.206;2023-06-22T09:54:43;26.40;99.90
8684;DHT22;4379;59.744;18.206;2023-06-22T09:57:10;26.50;99.90
8684;DHT22;4379;59.744;18.206;2023-06-22T09:59:38;27.20;99.90
8684;DHT22;4379;59.744;18.206;2023-06-22T10:02:07;27.10;99.90
8684;DHT22;4379;59.744;18.206;2023-06-22T10:04:36;26.90;99.90
8684;DHT22;4379;59.744;18.206;2023-06-22T10:07:04;26.60;99.90
8684;DHT22;4379;59.744;18.206;2023-06-22T10:09:32;26.60;99.90
8684;DHT22;4379;59.744;18.206;2023-06-22T10:12:02;27.20;99.90
8684;DHT22;4379;59.744;18.206;2023-06-22T10:14:29;26.90;99.90
8684;DHT22;4379;59.744;18.206;2023-06-22T10:16:57;26.50;99.90
8684;DHT22;4379;59.744;18.206;2023-06-22T10:19:26;26.20;99.90
8684;DHT22;4379;59.744;18.206;2023-06-22T10:21:53;26.40;99.90
8684;DHT22;4379;59.744;18.206;2023-06-22T10:24:22;26.50;99.90
8684;DHT22;4379;59.744;18.206;2023-06-22T10:26:50;26.70;99.90
8684;DHT22;4379;59.744;18.206;2023-06-22T10:29:18;27.00;99.90
8684;DHT22;4379;59.744;18.206;2023-06-22T10:31:46;26.90;99.90
8684;DHT22;4379;59.744;18.206;2023-06-22T10:34:13;26.80;99.90
8684;DHT22;4379;59.744;18.206;2023-06-22T10:36:41;27.30;99.90
8684;DHT22;4379;59.744;18.206;2023-06-22T10:39:08;27.30;99.90
8684;DHT22;4379;59.744;18.206;2023-06-22T10:41:36;27.70;99.90
8684;DHT22;4379;59.744;18.206;2023-06-22T10:44:03;27.80;99.90
8684;DHT22;4379;59.744;18.206;2023-06-22T10:46:34;27.70;99.90
8684;DHT22;4379;59.744;18.206;2023-06-22T10:49:02;27.30;99.90
8684;DHT22;4379;59.744;18.206;2023-06-22T10:51:29;27.30;99.90
8684;DHT22;4379;59.744;18.206;2023-06-22T10:53:58;27.10;99.90
8684;DHT22;4379;59.744;18.206;2023-06-22T10:56:25;27.30;99.90
8684;DHT22;4379;59.744;18.206;2023-06-22T10:58:53;27.60;99.90
8684;DHT22;4379;59.744;18.206;2023-06-22T11:01:21;28.30;99.90
8684;DHT22;4379;59.744;18.206;2023-06-22T11:04:02;28.60;99.90
8684;DHT22;4379;59.744;18.206;2023-06-22T11:06:30;29.00;99.90
8684;DHT22;4379;59.744;18.206;2023-06-22T11:08:57;29.00;99.90
8684;DHT22;4379;59.744;18.206;2023-06-22T11:11:34;29.00;99.90
8684;DHT22;4379;59.744;18.206;2023-06-22T11:14:01;29.00;99.90
8684;DHT22;4379;59.744;18.206;2023-06-22T11:16:30;28.30;99.90
8684;DHT22;4379;59.744;18.206;2023-06-22T11:18:57;28.00;99.90
8684;DHT22;4379;59.744;18.206;2023-06-22T11:21:26;28.40;99.90
8684;DHT22;4379;59.744;18.206;2023-06-22T11:23:58;28.10;99.90
8684;DHT22;4379;59.744;18.206;2023-06-22T11:26:27;28.30;99.90
8684;DHT22;4379;59.744;18.206;2023-06-22T11:28:57;28.60;99.90
8684;DHT22;4379;59.744;18.206;2023-06-22T11:31:26;28.10;99.90
8684;DHT22;4379;59.744;18.206;2023-06-22T11:33:53;28.60;99.90
8684;DHT22;4379;59.744;18.206;2023-06-22T11:36:21;28.70;99.90
8684;DHT22;4379;59.744;18.206;2023-06-22T11:38:48;28.40;99.90
8684;DHT22;4379;59.744;18.206;2023-06-22T11:41:16;27.80;99.90
8684;DHT22;4379;59.744;18.206;2023-06-22T11:43:44;27.70;99.90
8684;DHT22;4379;59.744;18.206;2023-06-22T11:46:11;27.50;99.90
8684;DHT22;4379;59.744;18.206;2023-06-22T11:48:39;27.70;99.90
8684;DHT22;4379;59.744;18.206;2023-06-22T11:51:20;27.80;99.90
8684;DHT22;4379;59.744;18.206;2023-06-22T11:53:58;27.90;99.90
8684;DHT22;4379;59.744;18.206;2023-06-22T11:56:25;28.00;99.90
8684;DHT22;4379;59.744;18.206;2023-06-22T11:58:57;28.00;99.90
8684;DHT22;4379;59.744;18.206;2023-06-22T12:01:28;27.90;99.90
8684;DHT22;4379;59.744;18.206;2023-06-22T12:03:55;27.70;99.90
8684;DHT22;4379;59.744;18.206;2023-06-22T12:06:23;27.90;99.90
8684;DHT22;4379;59.744;18.206;2023-06-22T12:08:50;27.90;99.90
8684;DHT22;4379;59.744;18.206;2023-06-22T12:11:18;27.70;99.90
8684;DHT22;4379;59.744;18.206;2023-06-22T12:13:45;27.70;99.90
8684;DHT22;4379;59.744;18.206;2023-06-22T12:16:12;27.50;99.90
8684;DHT22;4379;59.744;18.206;2023-06-22T12:18:40;27.40;99.90
8684;DHT22;4379;59.744;18.206;2023-06-22T12:21:07;27.30;99.90
8684;DHT22;4379;59.744;18.206;2023-06-22T12:23:34;27.50;99.90
8684;DHT22;4379;59.744;18.206;2023-06-22T12:26:02;27.50;99.90
8684;DHT22;4379;59.744;18.206;2023-06-22T12:28:30;27.70;99.90
8684;DHT22;4379;59.744;18.206;2023-06-22T12:30:58;28.10;99.90
8684;DHT22;4379;59.744;18.206;2023-06-22T12:33:26;28.60;99.90
8684;DHT22;4379;59.744;18.206;2023-06-22T12:35:54;28.30;99.90
8684;DHT22;4379;59.744;18.206;2023-06-22T12:38:21;28.30;99.90
8684;DHT22;4379;59.744;18.206;2023-06-22T12:40:49;28.40;99.90
8684;DHT22;4379;59.744;18.206;2023-06-22T12:43:16;28.40;99.90
8684;DHT22;4379;59.744;18.206;2023-06-22T12:45:44;28.80;99.90
8684;DHT22;4379;59.744;18.206;2023-06-22T12:48:11;28.60;99.90
8684;DHT22;4379;59.744;18.206;2023-06-22T12:50:40;28.60;99.90
8684;DHT22;4379;59.744;18.206;2023-06-22T12:53:07;28.50;99.90
8684;DHT22;4379;59.744;18.206;2023-06-22T12:55:35;28.60;99.90
8684;DHT22;4379;59.744;18.206;2023-06-22T12:58:02;28.40;99.90
8684;DHT22;4379;59.744;18.206;2023-06-22T13:00:29;28.40;99.90
8684;DHT22;4379;59.744;18.206;2023-06-22T13:02:57;28.10;99.90
8684;DHT22;4379;59.744;18.206;2023-06-22T13:05:25;28.10;99.90
8684;DHT22;4379;59.744;18.206;2023-06-22T13:07:54;28.20;99.90
8684;DHT22;4379;59.744;18.206;2023-06-22T13:10:21;28.30;99.90
8684;DHT22;4379;59.744;18.206;2023-06-22T13:12:49;28.40;99.90
8684;DHT22;4379;59.744;18.206;2023-06-22T13:15:17;28.40;99.90
8684;DHT22;4379;59.744;18.206;2023-06-22T13:17:44;28.40;99.90
8684;DHT22;4379;59.744;18.206;2023-06-22T13:20:13;28.20;99.90
8684;DHT22;4379;59.744;18.206;2023-06-22T13:22:40;28.30;99.90
8684;DHT22;4379;59.744;18.206;2023-06-22T13:25:10;27.90;99.90
8684;DHT22;4379;59.744;18.206;2023-06-22T13:27:41;27.70;99.90
8684;DHT22;4379;59.744;18.206;2023-06-22T13:30:09;27.80;99.90
8684;DHT22;4379;59.744;18.206;2023-06-22T13:32:40;28.10;99.90
8684;DHT22;4379;59.744;18.206;2023-06-22T13:35:12;28.10;99.90
8684;DHT22;4379;59.744;18.206;2023-06-22T13:37:41;27.90;99.90
8684;DHT22;4379;59.744;18.206;2023-06-22T13:40:09;27.50;99.90
8684;DHT22;4379;59.744;18.206;2023-06-22T13:42:38;27.30;99.90
8684;DHT22;4379;59.744;18.206;2023-06-22T13:45:09;26.90;99.90
8684;DHT22;4379;59.744;18.206;2023-06-22T13:47:36;26.90;99.90
8684;DHT22;4379;59.744;18.206;2023-06-22T13:50:06;27.10;99.90
8684;DHT22;4379;59.744;18.206;2023-06-22T13:52:33;27.00;99.90
8684;DHT22;4379;59.744;18.206;2023-06-22T13:55:00;26.80;99.90
8684;DHT22;4379;59.744;18.206;2023-06-22T13:57:28;27.00;99.90
8684;DHT22;4379;59.744;18.206;2023-06-22T13:59:58;27.40;99.90
8684;DHT22;4379;59.744;18.206;2023-06-22T14:02:26;27.60;99.90
8684;DHT22;4379;59.744;18.206;2023-06-22T14:04:54;27.60;99.90
8684;DHT22;4379;59.744;18.206;2023-06-22T14:07:22;27.60;99.90
8684;DHT22;4379;59.744;18.206;2023-06-22T14:09:51;27.60;99.90
8684;DHT22;4379;59.744;18.206;2023-06-22T14:12:20;27.50;99.90
8684;DHT22;4379;59.744;18.206;2023-06-22T14:14:54;27.60;99.90
8684;DHT22;4379;59.744;18.206;2023-06-22T14:17:35;27.50;99.90
8684;DHT22;4379;59.744;18.206;2023-06-22T14:20:02;27.30;99.90
8684;DHT22;4379;59.744;18.206;2023-06-22T14:22:54;27.20;99.90
8684;DHT22;4379;59.744;18.206;2023-06-22T14:25:32;26.90;99.90
8684;DHT22;4379;59.744;18.206;2023-06-22T14:28:41;27.20;99.90
8684;DHT22;4379;59.744;18.206;2023-06-22T14:31:22;27.20;99.90
8684;DHT22;4379;59.744;18.206;2023-06-22T14:33:56;27.50;99.90
8684;DHT22;4379;59.744;18.206;2023-06-22T14:36:25;27.80;99.90
8684;DHT22;4379;59.744;18.206;2023-06-22T14:38:56;27.90;99.90
8684;DHT22;4379;59.744;18.206;2023-06-22T14:41:27;28.00;99.90
8684;DHT22;4379;59.744;18.206;2023-06-22T14:43:54;28.10;99.90
8684;DHT22;4379;59.744;18.206;2023-06-22T14:46:27;27.90;99.90
8684;DHT22;4379;59.744;18.206;2023-06-22T14:49:13;27.70;99.90
8684;DHT22;4379;59.744;18.206;2023-06-22T14:52:14;27.70;99.90
8684;DHT22;4379;59.744;18.206;2023-06-22T14:54:55;27.90;99.90
8684;DHT22;4379;59.744;18.206;2023-06-22T14:57:26;28.00;99.90
8684;DHT22;4379;59.744;18.206;2023-06-22T15:00:14;27.90;99.90
8684;DHT22;4379;59.744;18.206;2023-06-22T15:03:05;27.80;99.90
8684;DHT22;4379;59.744;18.206;2023-06-22T15:05:43;27.70;99.90
8684;DHT22;4379;59.744;18.206;2023-06-22T15:08:11;27.40;99.90
8684;DHT22;4379;59.744;18.206;2023-06-22T15:10:59;27.10;99.90
8684;DHT22;4379;59.744;18.206;2023-06-22T15:13:33;26.90;99.90
8684;DHT22;4379;59.744;18.206;2023-06-22T15:16:03;26.90;99.90
8684;DHT22;4379;59.744;18.206;2023-06-22T15:21:45;27.40;99.90
8684;DHT22;4379;59.744;18.206;2023-06-22T15:24:36;27.70;99.90
8684;DHT22;4379;59.744;18.206;2023-06-22T15:27:04;27.90;99.90
8684;DHT22;4379;59.744;18.206;2023-06-22T15:29:31;27.50;99.90
8684;DHT22;4379;59.744;18.206;2023-06-22T15:32:01;27.40;99.90
8684;DHT22;4379;59.744;18.206;2023-06-22T15:34:28;27.40;99.90
8684;DHT22;4379;59.744;18.206;2023-06-22T15:36:57;27.30;99.90
8684;DHT22;4379;59.744;18.206;2023-06-22T15:39:26;27.50;99.90
8684;DHT22;4379;59.744;18.206;2023-06-22T15:41:54;27.40;99.90
8684;DHT22;4379;59.744;18.206;2023-06-22T15:44:25;27.20;99.90
8684;DHT22;4379;59.744;18.206;2023-06-22T15:46:52;27.00;99.90
8684;DHT22;4379;59.744;18.206;2023-06-22T15:49:20;27.00;99.90
8684;DHT22;4379;59.744;18.206;2023-06-22T15:51:47;26.90;99.90
8684;DHT22;4379;59.744;18.206;2023-06-22T15:54:15;26.90;99.90
8684;DHT22;4379;59.744;18.206;2023-06-22T15:56:43;26.90;99.90
8684;DHT22;4379;59.744;18.206;2023-06-22T15:59:10;27.10;99.90
8684;DHT22;4379;59.744;18.206;2023-06-22T16:01:37;27.40;99.90
8684;DHT22;4379;59.744;18.206;2023-06-22T16:04:05;27.20;99.90
8684;DHT22;4379;59.744;18.206;2023-06-22T16:06:32;27.00;99.90